createdAt,value
2022-12-12T00:03:17.796Z,98.54
2022-12-12T00:08:17.629Z,97.59
2022-12-12T00:13:17.569Z,96.86
2022-12-12T00:18:17.489Z,96.50
2022-12-12T00:23:17.453Z,95.18
2022-12-12T00:28:17.364Z,94.13
2022-12-12T00:33:17.314Z,94.30
2022-12-12T00:38:17.225Z,95.14
2022-12-12T00:43:17.182Z,96.08
2022-12-12T00:48:17.109Z,96.19
2022-12-12T00:53:17.050Z,95.56
2022-12-12T00:58:16.953Z,96.19
2022-12-12T01:03:17.069Z,95.35
2022-12-12T01:08:38.968Z,95.07
2022-12-12T01:13:31.336Z,95.70
2022-12-12T01:18:31.632Z,95.50
2022-12-12T01:23:31.226Z,95.70
2022-12-12T01:28:31.172Z,95.50
2022-12-12T01:33:31.087Z,96.12
2022-12-12T01:38:31.055Z,95.50
2022-12-12T01:43:30.962Z,95.29
2022-12-12T01:48:30.960Z,94.87
2022-12-12T01:53:30.832Z,94.20
2022-12-12T01:58:30.776Z,94.51
2022-12-12T02:03:30.702Z,94.82
2022-12-12T02:08:30.695Z,94.56
2022-12-12T02:13:30.606Z,94.24
2022-12-12T02:18:30.533Z,94.66
2022-12-12T02:23:30.437Z,95.18
2022-12-12T02:28:30.410Z,95.50
2022-12-12T02:33:30.338Z,95.81
2022-12-12T02:38:30.296Z,94.03
2022-12-12T02:43:30.213Z,94.66
2022-12-12T02:48:30.151Z,95.92
2022-12-12T02:53:30.088Z,96.12
2022-12-12T02:58:30.026Z,95.92
2022-12-12T03:03:29.939Z,95.18
2022-12-12T03:08:29.929Z,94.56
2022-12-12T03:13:29.788Z,94.76
2022-12-12T03:18:29.764Z,95.70
2022-12-12T03:23:29.717Z,93.40
2022-12-12T03:28:29.650Z,91.52
2022-12-12T03:33:29.570Z,91.20
2022-12-12T03:38:29.499Z,92.14
2022-12-12T03:43:29.425Z,92.77
2022-12-12T03:48:29.373Z,93.19
2022-12-12T03:53:29.353Z,93.19
2022-12-12T03:58:29.258Z,93.08
2022-12-12T04:03:29.177Z,94.13
2022-12-12T04:08:29.193Z,93.97
2022-12-12T04:13:32.180Z,93.24
2022-12-12T04:18:28.998Z,93.55
2022-12-12T04:23:28.903Z,93.87
2022-12-12T04:28:28.874Z,93.87
2022-12-12T04:33:28.798Z,93.87
2022-12-12T04:38:28.742Z,93.13
2022-12-12T04:43:28.658Z,93.34
2022-12-12T04:48:28.616Z,94.28
2022-12-12T04:53:28.531Z,94.07
2022-12-12T04:58:28.478Z,94.49
2022-12-12T05:03:28.408Z,94.49
2022-12-12T05:08:28.437Z,94.49
2022-12-12T05:13:28.283Z,93.13
2022-12-12T05:18:37.654Z,92.13
2022-12-12T05:23:34.486Z,92.71
2022-12-12T05:28:29.977Z,92.71
2022-12-12T05:33:29.925Z,93.02
2022-12-12T05:38:29.912Z,92.61
2022-12-12T05:43:29.809Z,92.19
2022-12-12T05:48:29.725Z,91.66
2022-12-12T05:53:29.686Z,91.66
2022-12-12T05:58:29.589Z,92.82
2022-12-12T06:03:29.539Z,92.50
2022-12-12T06:08:29.556Z,91.14
2022-12-12T06:13:29.420Z,91.56
2022-12-12T06:18:29.327Z,91.35
2022-12-12T06:23:29.278Z,90.55
2022-12-12T06:28:29.211Z,90.66
2022-12-12T06:33:29.155Z,91.60
2022-12-12T06:38:29.102Z,91.39
2022-12-12T06:43:29.039Z,90.87
2022-12-12T06:48:29.016Z,91.71
2022-12-12T06:53:28.904Z,91.28
2022-12-12T06:58:28.836Z,91.18
2022-12-12T07:03:28.783Z,91.81
2022-12-12T07:08:28.761Z,91.81
2022-12-12T07:13:28.663Z,92.33
2022-12-12T07:18:28.559Z,92.65
2022-12-12T07:23:28.529Z,92.76
2022-12-12T07:28:28.457Z,92.33
2022-12-12T07:33:38.255Z,91.50
2022-12-12T07:38:29.305Z,91.28
2022-12-12T07:43:28.284Z,92.54
2022-12-12T07:48:28.168Z,92.65
2022-12-12T07:53:28.130Z,93.27
2022-12-12T07:58:28.048Z,93.07
2022-12-12T08:03:28.031Z,92.13
2022-12-12T08:08:27.917Z,90.93
2022-12-12T08:13:27.872Z,91.46
2022-12-12T08:18:27.808Z,91.24
2022-12-12T08:23:27.762Z,91.66
2022-12-12T08:28:27.686Z,91.46
2022-12-12T08:33:27.629Z,91.52
2022-12-12T08:38:27.572Z,89.53
2022-12-12T08:43:27.548Z,89.22
2022-12-12T08:48:27.423Z,89.28
2022-12-12T08:53:27.383Z,89.17
2022-12-12T08:58:27.302Z,88.12
2022-12-12T09:03:29.460Z,89.45
2022-12-12T09:08:27.225Z,89.23
2022-12-12T09:13:27.121Z,88.40
2022-12-12T09:18:27.034Z,87.15
2022-12-12T09:23:27.009Z,86.93
2022-12-12T09:28:26.919Z,86.72
2022-12-12T09:33:26.930Z,86.35
2022-12-12T09:38:26.792Z,85.68
2022-12-12T09:43:29.611Z,84.95
2022-12-12T09:48:26.721Z,85.58
2022-12-12T09:53:26.612Z,86.52
2022-12-12T09:58:26.519Z,85.01
2022-12-12T10:03:26.477Z,83.65
2022-12-12T10:08:26.453Z,84.07
2022-12-12T10:13:26.354Z,85.12
2022-12-12T10:18:26.285Z,84.45
2022-12-12T10:23:26.226Z,84.45
2022-12-12T10:28:26.148Z,83.93
2022-12-12T10:33:26.089Z,84.00
2022-12-12T10:38:26.064Z,83.78
2022-12-12T10:43:25.958Z,82.53
2022-12-12T10:48:25.898Z,82.84
2022-12-12T10:53:25.855Z,83.78
2022-12-12T10:58:25.730Z,83.64
2022-12-12T11:03:25.748Z,82.56
2022-12-12T11:08:25.699Z,81.93
2022-12-12T11:13:25.569Z,81.93
2022-12-12T11:18:25.498Z,82.25
2022-12-12T11:23:25.469Z,82.35
2022-12-12T11:28:25.372Z,81.27
2022-12-12T11:33:25.335Z,81.48
2022-12-12T11:38:25.270Z,80.65
2022-12-12T11:43:25.186Z,80.75
2022-12-12T11:48:25.111Z,80.51
2022-12-12T11:53:25.080Z,80.82
2022-12-12T11:58:25.030Z,80.71
2022-12-12T12:03:24.990Z,78.24
2022-12-12T12:08:24.890Z,79.32
2022-12-12T12:13:24.815Z,79.39
2022-12-12T12:18:28.014Z,80.71
2022-12-12T12:23:25.617Z,81.59
2022-12-12T12:28:24.584Z,82.25
2022-12-12T12:33:24.552Z,82.98
2022-12-12T12:38:24.470Z,83.71
2022-12-12T12:43:24.437Z,82.87
2022-12-12T12:48:24.347Z,82.56
2022-12-12T12:53:24.309Z,82.04
2022-12-12T12:58:24.225Z,83.08
2022-12-12T13:03:24.188Z,84.17
2022-12-12T13:08:24.123Z,82.81
2022-12-12T13:13:24.042Z,83.01
2022-12-12T13:18:23.954Z,83.23
2022-12-12T13:23:23.911Z,82.60
2022-12-12T13:28:23.821Z,83.18
2022-12-12T13:33:23.807Z,83.95
2022-12-12T13:38:23.704Z,83.71
2022-12-12T13:43:23.629Z,82.98
2022-12-12T13:48:23.578Z,83.61
2022-12-12T13:53:23.544Z,83.04
2022-12-12T13:58:24.645Z,82.84
2022-12-12T14:03:23.463Z,83.81
2022-12-12T14:08:23.350Z,84.89
2022-12-12T14:13:23.294Z,85.63
2022-12-12T14:18:28.502Z,85.35
2022-12-12T14:23:24.146Z,86.08
2022-12-12T14:28:23.085Z,85.56
2022-12-12T14:33:23.165Z,86.23
2022-12-12T14:38:27.838Z,86.13
2022-12-12T14:43:23.888Z,86.33
2022-12-12T14:48:22.847Z,87.10
2022-12-12T14:53:22.754Z,87.31
2022-12-12T14:58:22.677Z,87.98
2022-12-12T15:03:22.746Z,87.77
2022-12-12T15:08:22.608Z,88.02
2022-12-12T15:13:22.507Z,88.75
2022-12-12T15:18:22.419Z,89.22
2022-12-12T15:23:22.354Z,89.84
2022-12-12T15:28:22.324Z,90.20
2022-12-12T15:33:22.281Z,90.61
2022-12-12T15:38:22.168Z,91.28
2022-12-12T15:43:22.127Z,91.75
2022-12-12T15:48:22.037Z,91.96
2022-12-12T15:53:21.996Z,91.96
2022-12-12T15:58:28.924Z,92.38
2022-12-12T16:03:22.881Z,93.15
2022-12-12T16:08:21.913Z,93.47
2022-12-12T16:13:21.762Z,93.26
2022-12-12T16:18:21.663Z,93.26
2022-12-12T16:23:21.640Z,93.40
2022-12-12T16:28:25.292Z,94.04
2022-12-12T16:33:21.487Z,94.35
2022-12-12T16:38:21.429Z,94.04
2022-12-12T16:43:21.373Z,93.82
2022-12-12T16:48:21.278Z,94.24
2022-12-12T16:53:21.238Z,94.14
2022-12-12T16:58:21.178Z,94.14
2022-12-12T17:03:21.081Z,94.18
2022-12-12T17:08:21.077Z,94.08
2022-12-12T17:13:20.976Z,94.18
2022-12-12T17:18:20.866Z,94.18
2022-12-12T17:23:35.613Z,94.18
2022-12-12T17:28:20.816Z,93.97
2022-12-12T17:33:20.737Z,94.29
2022-12-12T17:38:20.635Z,94.23
2022-12-12T17:43:20.608Z,94.54
2022-12-12T17:48:20.540Z,94.75
2022-12-12T17:53:20.481Z,95.06
2022-12-12T17:58:23.808Z,95.48
2022-12-12T18:03:21.363Z,95.80
2022-12-12T18:08:20.308Z,96.28
2022-12-12T18:13:20.213Z,96.18
2022-12-12T18:18:20.132Z,95.86
2022-12-12T18:23:20.082Z,95.97
2022-12-12T18:28:20.007Z,96.07
2022-12-12T18:33:19.993Z,96.18
2022-12-12T18:38:19.887Z,96.39
2022-12-12T18:43:19.844Z,96.39
2022-12-12T18:48:19.755Z,96.18
2022-12-12T18:53:19.679Z,96.28
2022-12-12T18:58:19.627Z,95.97
2022-12-12T19:03:19.572Z,95.80
2022-12-12T19:08:19.539Z,95.95
2022-12-12T19:13:19.449Z,96.26
2022-12-12T19:18:19.408Z,97.47
2022-12-12T19:23:19.342Z,97.57
2022-12-12T19:28:19.267Z,97.78
2022-12-12T19:33:19.194Z,97.25
2022-12-12T19:38:24.264Z,96.77
2022-12-12T19:43:20.059Z,97.09
2022-12-12T19:48:19.020Z,96.88
2022-12-12T19:53:18.945Z,97.13
2022-12-12T19:58:18.867Z,97.55
2022-12-12T20:03:18.816Z,97.24
2022-12-12T20:08:18.846Z,97.34
2022-12-12T20:13:18.681Z,97.13
2022-12-12T20:18:18.668Z,97.34
2022-12-12T20:23:18.590Z,97.28
2022-12-12T20:28:18.543Z,97.39
2022-12-12T20:33:18.434Z,97.71
2022-12-12T20:38:18.381Z,97.91
2022-12-12T20:43:18.303Z,97.91
2022-12-12T20:48:18.282Z,97.81
2022-12-12T20:53:18.234Z,97.81
2022-12-12T20:58:18.130Z,97.49
2022-12-12T21:03:18.089Z,97.60
2022-12-12T21:08:18.062Z,97.64
2022-12-12T21:13:17.932Z,97.33
2022-12-12T21:18:17.884Z,96.91
2022-12-12T21:23:18.166Z,97.22
2022-12-12T21:28:17.754Z,97.11
2022-12-12T21:33:17.676Z,97.33
2022-12-12T21:38:17.639Z,97.75
2022-12-12T21:43:17.561Z,97.85
2022-12-12T21:48:17.483Z,97.27
2022-12-12T21:53:17.432Z,97.58
2022-12-12T21:58:17.383Z,97.37
2022-12-12T22:03:17.367Z,97.73
2022-12-12T22:08:17.314Z,97.09
2022-12-12T22:13:17.181Z,98.15
2022-12-12T22:18:17.120Z,98.89
2022-12-12T22:23:17.060Z,99.10
2022-12-12T22:28:16.988Z,98.47
2022-12-12T22:33:16.922Z,98.15
2022-12-12T22:38:16.870Z,98.36
2022-12-12T22:43:16.815Z,98.15
2022-12-12T22:48:16.744Z,98.57
2022-12-12T22:53:16.656Z,98.05
2022-12-12T22:58:16.621Z,98.47
2022-12-12T23:03:16.547Z,98.09
2022-12-12T23:08:16.518Z,98.41
2022-12-12T23:13:16.420Z,98.83
2022-12-12T23:18:16.382Z,99.04
2022-12-12T23:23:16.293Z,99.15
2022-12-12T23:28:16.252Z,99.04
2022-12-12T23:33:16.178Z,98.61
2022-12-12T23:38:16.115Z,98.41
2022-12-12T23:43:16.043Z,98.24
2022-12-12T23:48:15.988Z,98.87
2022-12-12T23:53:15.908Z,99.46
2022-12-12T23:58:15.863Z,99.78
